»·PEaware :: SWA572 KABQ-KPHX

SWA572 :: KABQ-KPHX

FLIGHT INFORMATION

Flight Status: Arrived
Operator:
Southwest Airlines
More flights by this operator :: More flights under this callsign
Pilot: Anonymous 8799 (8799)
Aircraft: BOEING 737-800
(B738)
More flights by this aircraft type
Origin: KABQ Albuquerque Intl Sunport
United States
Destination: KPHX Phoenix Sky Harbor Intl
United States
More flights between these airports :: More routes between these airports
Route: +RDRNR3 ZUN EAGUL6
File this flight plan on PilotEdge
Remarks:
Altitude:
(Current/Filed)
32,000ft
Speed:
(Current/Filed)
450kts
Departed: 09-Oct-17 04:25 PM
Arrived: 09-Oct-17 05:21 PM
Distance/Time
Traveled:
284nm/0:56
Distance/Time
To Go:
Arrived

Flight Plot

Page will automatically refresh every two minutes.


Map Options




Map Legend


Flown Route
Filed Route
Departure Airport
Arrival Airport
Navaid (VOR, NDB)
Fix

Horizontal Profiles

Position Reports

Time Latitude Longitude Heading Altitude Ground
Speed
09-Oct-17 15:50 35.046903 -106.616891 4 5323ft 0kts
09-Oct-17 15:51 35.046904 -106.616891 4 5323ft 0kts
09-Oct-17 15:52 35.046903 -106.616891 4 5323ft 0kts
09-Oct-17 15:53 35.046904 -106.616891 4 5323ft 0kts
09-Oct-17 15:54 35.046903 -106.616891 4 5323ft 0kts
09-Oct-17 15:55 35.046904 -106.616891 4 5323ft 0kts
09-Oct-17 15:56 35.046903 -106.616891 4 5323ft 0kts
09-Oct-17 15:57 35.046903 -106.616891 4 5323ft 0kts
09-Oct-17 15:58 35.046904 -106.616891 4 5323ft 0kts
09-Oct-17 15:59 35.046904 -106.616891 4 5323ft 0kts
09-Oct-17 16:00 35.046904 -106.616891 4 5323ft 0kts
09-Oct-17 16:01 35.046904 -106.616891 4 5323ft 0kts
09-Oct-17 16:02 35.046904 -106.616891 4 5323ft 0kts
09-Oct-17 16:03 35.046904 -106.616891 4 5323ft 0kts
09-Oct-17 16:04 35.046904 -106.616891 4 5323ft 0kts
09-Oct-17 16:05 35.046904 -106.616891 4 5323ft 0kts
09-Oct-17 16:06 35.046904 -106.616891 4 5323ft 0kts
09-Oct-17 16:07 35.046904 -106.616891 4 5323ft 0kts
09-Oct-17 16:08 35.046735 -106.616905 1 5323ft 2kts
09-Oct-17 16:09 35.046141 -106.616907 359 5323ft 2kts
09-Oct-17 16:10 35.046062 -106.616907 359 5323ft 0kts
09-Oct-17 16:11 35.046062 -106.616907 359 5323ft 0kts
09-Oct-17 16:12 35.046062 -106.616907 359 5323ft 0kts
09-Oct-17 16:13 35.046062 -106.616907 359 5323ft 0kts
09-Oct-17 16:14 35.046062 -106.616907 359 5323ft 0kts
09-Oct-17 16:15 35.046062 -106.616907 359 5323ft 0kts
09-Oct-17 16:16 35.046062 -106.616907 359 5323ft 0kts
09-Oct-17 16:17 35.046062 -106.616907 359 5323ft 0kts
09-Oct-17 16:18 35.046064 -106.616907 0 5323ft 0kts
09-Oct-17 16:19 35.046116 -106.616315 124 5323ft 5kts
09-Oct-17 16:20 35.045286 -106.613877 156 5323ft 7kts
09-Oct-17 16:21 35.040761 -106.613929 178 5323ft 24kts
09-Oct-17 16:22 35.037695 -106.614276 205 5323ft 12kts
09-Oct-17 16:23 35.033611 -106.619083 223 5323ft 15kts
09-Oct-17 16:24 35.029071 -106.624536 226 5320ft 8kts
09-Oct-17 16:25 35.024957 -106.629526 219 5317ft 16kts
09-Oct-17 16:26 35.023138 -106.631235 164 5316ft 0kts
09-Oct-17 16:27 35.023138 -106.631235 164 5316ft 0kts
09-Oct-17 16:28 35.022621 -106.630715 106 5316ft 13kts
09-Oct-17 16:29 35.041460 -106.606238 42 5886ft 181kts
09-Oct-17 16:30 35.078829 -106.633676 278 8222ft 252kts
09-Oct-17 16:31 35.088312 -106.727252 276 11380ft 316kts
09-Oct-17 16:32 35.102490 -106.833203 280 16120ft 318kts
09-Oct-17 16:33 35.103584 -106.941241 260 20021ft 338kts
09-Oct-17 16:34 35.080149 -107.055692 262 23300ft 360kts
09-Oct-17 16:35 35.055998 -107.175405 263 26464ft 371kts
09-Oct-17 16:36 35.035860 -107.299873 274 29179ft 374kts
09-Oct-17 16:37 35.031139 -107.427607 274 31615ft 385kts
09-Oct-17 16:38 35.025337 -107.561479 273 32246ft 408kts
09-Oct-17 16:39 35.019433 -107.696595 273 32249ft 406kts
09-Oct-17 16:40 35.013622 -107.833550 273 32247ft 405kts
09-Oct-17 16:41 35.008134 -107.967220 273 32244ft 405kts
09-Oct-17 16:42 35.002648 -108.104612 273 32242ft 406kts
09-Oct-17 16:43 34.997325 -108.241818 273 32241ft 406kts
09-Oct-17 16:44 34.992162 -108.378927 273 32233ft 407kts
09-Oct-17 16:45 34.987110 -108.517213 273 32225ft 407kts
09-Oct-17 16:46 34.982360 -108.651282 273 32221ft 407kts
09-Oct-17 16:47 34.977582 -108.788693 273 32227ft 408kts
09-Oct-17 16:48 34.972988 -108.927006 273 32220ft 408kts
09-Oct-17 16:49 34.968551 -109.066014 273 32213ft 416kts
09-Oct-17 16:50 34.949232 -109.206336 249 32213ft 442kts
09-Oct-17 16:51 34.898469 -109.338690 250 32203ft 439kts
09-Oct-17 16:52 34.848848 -109.473764 250 32195ft 440kts
09-Oct-17 16:53 34.799366 -109.609198 250 32195ft 439kts
09-Oct-17 16:54 34.753634 -109.733126 250 32208ft 440kts
09-Oct-17 16:55 34.708538 -109.854878 250 32236ft 440kts
09-Oct-17 16:56 34.657913 -109.990120 250 32254ft 440kts
09-Oct-17 16:57 34.607253 -110.125008 250 32255ft 440kts
09-Oct-17 16:58 34.556813 -110.259668 250 32253ft 439kts
09-Oct-17 16:59 34.506415 -110.394610 250 32252ft 439kts
09-Oct-17 17:00 34.455540 -110.529195 250 32231ft 440kts
09-Oct-17 17:01 34.405433 -110.660774 249 32181ft 425kts
09-Oct-17 17:02 34.357670 -110.786042 247 30348ft 410kts
09-Oct-17 17:03 34.277828 -110.894524 231 28250ft 437kts
09-Oct-17 17:04 34.196576 -110.998996 230 26044ft 425kts
09-Oct-17 17:05 34.116963 -111.101761 229 23883ft 412kts
09-Oct-17 17:06 34.041282 -111.198603 228 21641ft 383kts
09-Oct-17 17:07 33.969583 -111.290352 228 19456ft 374kts
09-Oct-17 17:08 33.902024 -111.376849 227 17224ft 329kts
09-Oct-17 17:09 33.850947 -111.460189 238 15856ft 329kts
09-Oct-17 17:10 33.802898 -111.552222 238 14135ft 321kts
09-Oct-17 17:11 33.755242 -111.641943 237 13442ft 315kts
09-Oct-17 17:12 33.712440 -111.722220 237 12011ft 287kts
09-Oct-17 17:13 33.669948 -111.802196 237 11264ft 275kts
09-Oct-17 17:14 33.631318 -111.874928 238 9986ft 256kts
09-Oct-17 17:15 33.593410 -111.946139 238 9055ft 252kts
09-Oct-17 17:17 33.556134 -112.016036 238 7795ft 246kts
09-Oct-17 17:18 33.525908 -112.087032 268 6903ft 238kts
09-Oct-17 17:19 33.518841 -112.166161 259 5325ft 239kts
09-Oct-17 17:20 33.505893 -112.239495 228 4759ft 236kts
09-Oct-17 17:21 33.449600 -112.245777 133 3727ft 191kts
09-Oct-17 17:22 33.429373 -112.189447 92 3795ft 182kts
09-Oct-17 17:23 33.428841 -112.128219 89 2820ft 182kts
09-Oct-17 17:24 33.428863 -112.075278 90 1903ft 142kts
09-Oct-17 17:25 33.428824 -112.027380 88 1169ft 144kts
09-Oct-17 17:26 33.429281 -112.008059 53 1117ft 6kts
09-Oct-17 17:27 33.432163 -112.005599 82 1117ft 14kts
09-Oct-17 17:28 33.432118 -111.998849 83 1117ft 20kts
09-Oct-17 17:29 33.434051 -111.997330 75 1117ft 2kts
09-Oct-17 17:30 33.434053 -111.997323 75 1117ft 0kts
09-Oct-17 17:31 33.434053 -111.997323 75 1117ft 0kts
09-Oct-17 17:32 33.434053 -111.997323 75 1117ft 0kts

Navigation Log

Ident Type
1. KABQ Airport
2. ZUN Navaid
3. DOJOE Fix
4. SLIDR Fix
5. PAYSO Fix
6. EAGUL Fix
7. PICHR Fix
8. HOMRR Fix
9. QUENY Fix
10. HINEY Fix
11. BASBL Fix
12. KPHX Airport